createdAt,value
2022-12-19T00:00:07.659Z,68.84
2022-12-19T00:02:39.697Z,68.59
2022-12-19T00:05:07.379Z,68.58
2022-12-19T00:07:34.384Z,68.13
2022-12-19T00:10:01.383Z,68.54
2022-12-19T00:12:30.936Z,68.63
2022-12-19T00:14:57.996Z,68.50
2022-12-19T00:17:26.650Z,68.74
2022-12-19T00:19:53.607Z,68.59
2022-12-19T00:22:20.556Z,68.81
2022-12-19T00:24:48.415Z,68.41
2022-12-19T00:27:15.440Z,68.70
2022-12-19T00:29:42.423Z,68.85
2022-12-19T00:32:09.440Z,68.78
2022-12-19T00:34:42.771Z,68.96
2022-12-19T00:37:11.953Z,68.61
2022-12-19T00:39:38.985Z,68.69
2022-12-19T00:42:06.413Z,68.77
2022-12-19T00:44:33.481Z,69.11
2022-12-19T00:47:00.477Z,68.47
2022-12-19T00:49:27.464Z,68.65
2022-12-19T00:51:56.938Z,68.64
2022-12-19T00:54:24.116Z,68.72
2022-12-19T00:56:51.178Z,69.02
2022-12-19T00:59:18.165Z,68.84
2022-12-19T01:01:56.632Z,68.68
2022-12-19T01:04:28.818Z,68.89
2022-12-19T01:07:02.106Z,68.69
2022-12-19T01:09:33.506Z,68.69
2022-12-19T01:12:20.502Z,68.82
2022-12-19T01:14:57.706Z,68.29
2022-12-19T01:17:43.831Z,68.95
2022-12-19T01:20:14.126Z,68.50
2022-12-19T01:22:41.079Z,68.60
2022-12-19T01:25:08.283Z,69.02
2022-12-19T01:27:35.280Z,68.65
2022-12-19T01:30:02.824Z,69.28
2022-12-19T01:32:31.166Z,69.10
2022-12-19T01:35:00.113Z,69.42
2022-12-19T01:37:27.140Z,69.02
2022-12-19T01:39:54.087Z,69.43
2022-12-19T01:42:23.480Z,69.34
2022-12-19T01:45:17.173Z,69.63
2022-12-19T01:47:49.494Z,69.28
2022-12-19T01:50:26.562Z,69.84
2022-12-19T01:52:54.232Z,69.33
2022-12-19T01:55:21.706Z,69.70
2022-12-19T01:57:50.851Z,69.07
2022-12-19T02:00:17.868Z,69.08
2022-12-19T02:02:59.680Z,69.59
2022-12-19T02:05:26.756Z,69.31
2022-12-19T02:07:54.062Z,69.46
2022-12-19T02:10:21.148Z,69.38
2022-12-19T02:12:49.758Z,69.59
2022-12-19T02:15:18.170Z,69.98
2022-12-19T02:18:08.697Z,69.91
2022-12-19T02:21:05.104Z,69.92
2022-12-19T02:24:08.357Z,71.00
2022-12-19T02:26:57.430Z,70.17
2022-12-19T02:29:49.154Z,70.34
2022-12-19T02:32:27.261Z,70.25
2022-12-19T02:35:07.266Z,70.01
2022-12-19T02:37:38.573Z,70.10
2022-12-19T02:40:24.409Z,69.94
2022-12-19T02:42:58.287Z,69.69
2022-12-19T02:45:29.976Z,69.75
2022-12-19T02:48:03.320Z,69.84
2022-12-19T02:50:38.954Z,69.66
2022-12-19T02:53:06.324Z,69.68
2022-12-19T02:55:43.882Z,69.76
2022-12-19T02:58:33.896Z,70.38
2022-12-19T03:01:30.261Z,69.96
2022-12-19T03:04:21.450Z,70.05
2022-12-19T03:07:20.748Z,69.95
2022-12-19T03:10:26.033Z,70.16
2022-12-19T03:13:14.736Z,70.54
2022-12-19T03:15:43.120Z,70.21
2022-12-19T03:18:10.947Z,70.32
2022-12-19T03:21:05.636Z,70.10
2022-12-19T03:23:33.088Z,70.18
2022-12-19T03:26:05.360Z,70.19
2022-12-19T03:28:59.625Z,70.01
2022-12-19T03:31:29.636Z,70.00
2022-12-19T03:34:01.075Z,70.00
2022-12-19T03:36:33.130Z,70.56
2022-12-19T03:39:04.370Z,70.43
2022-12-19T03:41:50.997Z,70.72
2022-12-19T03:44:20.500Z,70.17
2022-12-19T03:46:55.323Z,69.86
2022-12-19T03:49:22.341Z,70.05
2022-12-19T03:52:00.055Z,70.22
2022-12-19T03:54:31.608Z,69.87
2022-12-19T03:57:07.386Z,70.16
2022-12-19T03:59:46.496Z,70.58
2022-12-19T04:02:18.451Z,70.03
2022-12-19T04:04:59.974Z,70.19
2022-12-19T04:07:27.695Z,70.49
2022-12-19T04:09:59.496Z,70.19
2022-12-19T04:12:34.153Z,70.32
2022-12-19T04:15:01.209Z,70.07
2022-12-19T04:17:59.129Z,70.47
2022-12-19T04:20:28.050Z,69.90
2022-12-19T04:23:16.940Z,70.18
2022-12-19T04:25:50.056Z,69.97
2022-12-19T04:28:25.695Z,70.03
2022-12-19T04:30:54.568Z,69.91
2022-12-19T04:33:21.736Z,69.63
2022-12-19T04:35:48.960Z,70.18
2022-12-19T04:38:16.037Z,70.11
2022-12-19T04:40:43.055Z,69.93
2022-12-19T04:43:10.068Z,69.91
2022-12-19T04:45:37.166Z,70.14
2022-12-19T04:48:04.486Z,70.00
2022-12-19T04:50:33.428Z,69.63
2022-12-19T04:53:01.132Z,70.25
2022-12-19T04:55:28.250Z,70.71
2022-12-19T04:57:55.339Z,70.38
2022-12-19T05:00:22.281Z,70.30
2022-12-19T05:02:49.510Z,70.21
2022-12-19T05:05:18.264Z,70.25
2022-12-19T05:07:45.268Z,70.14
2022-12-19T05:10:12.249Z,70.00
2022-12-19T05:12:39.898Z,70.30
2022-12-19T05:15:07.345Z,70.33
2022-12-19T05:17:34.299Z,70.45
2022-12-19T05:20:01.264Z,69.98
2022-12-19T05:22:30.311Z,70.34
2022-12-19T05:24:57.275Z,69.90
2022-12-19T05:27:24.215Z,70.31
2022-12-19T05:29:51.193Z,69.85
2022-12-19T05:32:18.322Z,69.93
2022-12-19T05:34:45.302Z,69.80
2022-12-19T05:37:12.265Z,69.76
2022-12-19T05:39:39.197Z,70.15
2022-12-19T05:42:09.666Z,69.92
2022-12-19T05:44:39.364Z,70.52
2022-12-19T05:47:06.398Z,70.36
2022-12-19T05:49:33.340Z,70.33
2022-12-19T05:52:00.295Z,70.17
2022-12-19T05:54:27.256Z,70.05
2022-12-19T05:56:54.282Z,70.10
2022-12-19T05:59:21.248Z,69.80
2022-12-19T06:01:48.369Z,69.91
2022-12-19T06:04:15.481Z,69.84
2022-12-19T06:06:42.711Z,69.70
2022-12-19T06:09:09.724Z,69.82
2022-12-19T06:11:36.664Z,69.86
2022-12-19T06:14:03.635Z,70.30
2022-12-19T06:16:33.439Z,70.09
2022-12-19T06:19:00.441Z,70.07
2022-12-19T06:21:27.393Z,70.36
2022-12-19T06:23:54.867Z,69.70
2022-12-19T06:26:22.825Z,69.86
2022-12-19T06:28:51.859Z,69.51
2022-12-19T06:31:23.797Z,69.74
2022-12-19T06:33:52.537Z,69.90
2022-12-19T06:36:28.295Z,70.08
2022-12-19T06:38:57.940Z,70.00
2022-12-19T06:41:43.456Z,69.55
2022-12-19T06:44:12.771Z,69.91
2022-12-19T06:46:40.924Z,69.65
2022-12-19T06:49:08.738Z,69.59
2022-12-19T06:51:35.737Z,69.49
2022-12-19T06:54:03.158Z,69.28
2022-12-19T06:56:35.942Z,69.48
2022-12-19T06:59:03.274Z,69.24
2022-12-19T07:01:51.482Z,69.24
2022-12-19T07:04:31.161Z,69.25
2022-12-19T07:06:59.182Z,69.57
2022-12-19T07:09:28.076Z,69.29
2022-12-19T07:11:55.166Z,69.18
2022-12-19T07:14:22.162Z,69.27
2022-12-19T07:16:52.087Z,69.25
2022-12-19T07:19:20.224Z,69.19
2022-12-19T07:21:47.930Z,69.31
2022-12-19T07:24:15.398Z,69.18
2022-12-19T07:26:44.304Z,69.16
2022-12-19T07:29:12.270Z,68.98
2022-12-19T07:31:39.681Z,69.04
2022-12-19T07:34:06.800Z,68.70
2022-12-19T07:36:33.754Z,68.61
2022-12-19T07:39:01.167Z,68.93
2022-12-19T07:41:28.276Z,69.00
2022-12-19T07:43:55.353Z,69.16
2022-12-19T07:46:22.412Z,68.69
2022-12-19T07:48:49.529Z,68.60
2022-12-19T07:51:16.492Z,68.79
2022-12-19T07:53:43.472Z,69.01
2022-12-19T07:56:10.407Z,68.87
2022-12-19T07:58:37.568Z,68.69
2022-12-19T08:01:06.542Z,68.74
2022-12-19T08:03:36.085Z,68.69
2022-12-19T08:06:06.202Z,68.67
2022-12-19T08:08:34.075Z,68.42
2022-12-19T08:11:13.402Z,68.81
2022-12-19T08:13:46.381Z,68.70
2022-12-19T08:16:14.965Z,69.02
2022-12-19T08:18:42.011Z,69.32
2022-12-19T08:21:10.200Z,68.91
2022-12-19T08:23:38.860Z,68.79
2022-12-19T08:26:08.349Z,68.98
2022-12-19T08:28:37.189Z,68.94
2022-12-19T08:31:09.039Z,69.30
2022-12-19T08:33:36.947Z,69.01
2022-12-19T08:36:09.772Z,68.90
2022-12-19T08:38:37.231Z,69.45
2022-12-19T08:41:04.708Z,68.89
2022-12-19T08:43:32.625Z,68.88
2022-12-19T08:45:59.837Z,69.14
2022-12-19T08:48:27.451Z,68.90
2022-12-19T08:50:59.396Z,68.72
2022-12-19T08:53:28.579Z,69.23
2022-12-19T08:56:01.036Z,68.72
2022-12-19T08:58:29.849Z,68.71
2022-12-19T09:01:05.239Z,68.98
2022-12-19T09:03:43.478Z,68.71
2022-12-19T09:06:20.375Z,68.83
2022-12-19T09:08:47.693Z,68.80
2022-12-19T09:11:16.979Z,68.76
2022-12-19T09:13:45.073Z,68.77
2022-12-19T09:16:29.970Z,68.78
2022-12-19T09:19:01.209Z,68.50
2022-12-19T09:21:29.607Z,69.01
2022-12-19T09:24:05.244Z,68.55
2022-12-19T09:26:35.617Z,68.38
2022-12-19T09:29:03.773Z,68.94
2022-12-19T09:31:38.646Z,68.65
2022-12-19T09:34:05.835Z,68.07
2022-12-19T09:36:32.821Z,68.36
2022-12-19T09:39:00.194Z,68.21
2022-12-19T09:41:42.211Z,68.45
2022-12-19T09:44:47.584Z,68.13
2022-12-19T09:47:18.220Z,68.42
2022-12-19T09:49:47.645Z,68.34
2022-12-19T09:52:36.001Z,68.31
2022-12-19T09:55:17.311Z,68.60
2022-12-19T09:57:49.985Z,68.47
2022-12-19T10:00:22.111Z,68.31
2022-12-19T10:03:01.406Z,68.64
2022-12-19T10:06:41.160Z,68.46
2022-12-19T10:08:31.930Z,68.02
2022-12-19T10:12:38.588Z,68.29
2022-12-19T10:14:15.875Z,68.12
2022-12-19T10:17:24.812Z,68.16
2022-12-19T10:20:11.998Z,67.89
2022-12-19T10:23:01.139Z,68.85
2022-12-19T10:25:31.709Z,68.77
2022-12-19T10:28:21.021Z,68.85
2022-12-19T10:31:21.073Z,68.20
2022-12-19T10:33:58.545Z,68.56
2022-12-19T10:36:48.700Z,68.41
2022-12-19T10:39:24.231Z,68.52
2022-12-19T10:41:56.107Z,68.35
2022-12-19T10:44:26.036Z,67.75
2022-12-19T10:46:53.432Z,68.08
2022-12-19T10:49:23.212Z,68.86
2022-12-19T10:52:10.605Z,68.66
2022-12-19T10:54:41.054Z,68.41
2022-12-19T10:57:25.708Z,68.64
2022-12-19T11:00:06.396Z,68.76
2022-12-19T11:02:38.431Z,68.88
2022-12-19T11:05:19.739Z,68.52
2022-12-19T11:08:08.328Z,68.12
2022-12-19T11:10:59.790Z,68.18
2022-12-19T11:19:33.487Z,68.92
2022-12-19T11:24:18.914Z,68.97
2022-12-19T11:24:45.061Z,69.03
2022-12-19T11:25:21.818Z,68.82
2022-12-19T11:29:31.408Z,68.24
2022-12-19T11:30:35.207Z,68.48
2022-12-19T11:32:32.153Z,68.55
2022-12-19T11:34:18.567Z,68.31
2022-12-19T11:36:53.582Z,68.25
2022-12-19T11:39:56.403Z,68.54
2022-12-19T11:46:29.497Z,68.71
2022-12-19T11:49:11.192Z,68.54
2022-12-19T11:51:48.983Z,68.43
2022-12-19T11:54:26.743Z,68.91
2022-12-19T11:56:53.883Z,68.21
2022-12-19T11:59:24.791Z,68.92
2022-12-19T12:02:00.775Z,68.83
2022-12-19T12:04:55.918Z,68.93
2022-12-19T12:07:51.258Z,68.71
2022-12-19T12:13:36.828Z,69.08
2022-12-19T12:27:05.778Z,68.66
2022-12-19T12:27:09.735Z,68.42
2022-12-19T12:27:26.115Z,68.88
2022-12-19T12:31:39.470Z,69.13
2022-12-19T12:31:42.235Z,68.32
2022-12-19T12:32:02.266Z,68.34
2022-12-19T12:35:55.105Z,68.38
2022-12-19T12:37:54.008Z,68.85
2022-12-19T12:38:43.369Z,68.21
2022-12-19T12:41:51.138Z,68.92
2022-12-19T12:44:18.151Z,68.30
2022-12-19T12:47:20.649Z,68.78
2022-12-19T12:49:53.884Z,69.25
2022-12-19T12:52:29.978Z,69.46
2022-12-19T12:54:57.911Z,69.01
2022-12-19T12:57:27.680Z,69.01
2022-12-19T13:00:15.398Z,69.11
2022-12-19T13:02:51.543Z,69.18
2022-12-19T13:05:51.600Z,69.34
2022-12-19T13:08:32.727Z,69.47
2022-12-19T13:11:02.947Z,68.64
2022-12-19T13:14:02.445Z,68.92
2022-12-19T13:16:44.793Z,69.74
2022-12-19T13:19:25.814Z,69.51
2022-12-19T13:22:05.184Z,68.85
2022-12-19T13:24:44.922Z,69.43
2022-12-19T13:27:33.290Z,69.68
2022-12-19T13:30:00.207Z,69.78
2022-12-19T13:32:33.325Z,68.96
2022-12-19T13:35:26.059Z,69.58
2022-12-19T13:39:48.640Z,69.99
2022-12-19T13:40:59.204Z,69.88
2022-12-19T13:43:47.887Z,69.77
2022-12-19T13:46:32.838Z,69.42
2022-12-19T13:49:27.547Z,69.60
2022-12-19T13:51:59.023Z,69.69
2022-12-19T13:54:55.575Z,69.52
2022-12-19T13:57:32.151Z,69.00
2022-12-19T14:00:10.113Z,69.31
2022-12-19T14:02:57.071Z,69.79
2022-12-19T14:06:16.097Z,68.95
2022-12-19T14:08:24.656Z,68.80
2022-12-19T14:11:46.504Z,69.05
2022-12-19T14:14:19.136Z,69.21
2022-12-19T14:16:49.118Z,69.86
2022-12-19T14:19:28.059Z,68.99
2022-12-19T14:22:04.210Z,69.96
2022-12-19T14:24:40.548Z,69.95
2022-12-19T14:28:26.362Z,69.02
2022-12-19T14:30:30.533Z,69.52
2022-12-19T14:33:45.774Z,68.89
2022-12-19T14:36:06.158Z,69.63
2022-12-19T14:39:23.727Z,69.92
2022-12-19T14:41:47.176Z,69.70
2022-12-19T14:54:05.591Z,69.46
2022-12-19T14:54:07.203Z,69.57
2022-12-19T14:54:12.043Z,69.41
2022-12-19T14:54:34.889Z,69.45
2022-12-19T14:56:19.683Z,69.24
2022-12-19T14:58:53.233Z,69.81
2022-12-19T15:01:33.923Z,70.25
2022-12-19T15:04:48.667Z,70.15
2022-12-19T15:07:06.859Z,69.82
2022-12-19T15:11:04.094Z,70.19
2022-12-19T15:14:50.873Z,69.87
2022-12-19T15:16:34.808Z,69.54
2022-12-19T15:19:03.598Z,69.68
2022-12-19T15:21:31.220Z,70.00
2022-12-19T15:23:58.167Z,69.96
2022-12-19T15:26:30.836Z,69.54
2022-12-19T15:28:58.629Z,69.27
2022-12-19T15:31:38.769Z,69.75
2022-12-19T15:34:36.891Z,69.51
2022-12-19T15:37:05.102Z,69.12
2022-12-19T15:39:32.068Z,69.35
2022-12-19T15:42:00.753Z,69.44
2022-12-19T15:44:37.241Z,69.70
2022-12-19T15:47:07.563Z,69.83
2022-12-19T15:49:35.397Z,69.35
2022-12-19T15:52:03.044Z,69.06
2022-12-19T15:57:38.604Z,70.16
2022-12-19T16:00:18.681Z,69.92
2022-12-19T16:03:23.912Z,70.47
2022-12-19T16:05:34.963Z,69.74
2022-12-19T16:08:02.046Z,69.88
2022-12-19T16:10:29.880Z,70.14
2022-12-19T16:12:58.161Z,70.26
2022-12-19T16:15:26.714Z,69.59
2022-12-19T16:17:54.702Z,70.34
2022-12-19T16:20:27.256Z,69.99
2022-12-19T16:22:55.403Z,70.26
2022-12-19T16:25:33.399Z,69.72
2022-12-19T16:28:02.358Z,70.11
2022-12-19T16:30:31.507Z,70.11
2022-12-19T16:32:58.972Z,69.92
2022-12-19T16:36:03.040Z,70.02
2022-12-19T16:38:15.339Z,70.39
2022-12-19T16:40:43.319Z,70.08
2022-12-19T16:43:25.626Z,70.16
2022-12-19T16:45:56.847Z,69.97
2022-12-19T16:48:29.933Z,70.22
2022-12-19T16:50:58.376Z,69.90
2022-12-19T16:53:25.352Z,70.17
2022-12-19T16:55:54.258Z,70.14
2022-12-19T16:58:24.161Z,69.56
2022-12-19T17:00:54.766Z,69.53
2022-12-19T17:03:41.743Z,69.94
2022-12-19T17:06:23.212Z,70.10
2022-12-19T17:08:51.056Z,70.40
2022-12-19T17:11:24.617Z,70.06
2022-12-19T17:13:55.978Z,69.89
2022-12-19T17:16:23.096Z,69.27
2022-12-19T17:18:50.658Z,69.18
2022-12-19T17:21:23.321Z,69.70
2022-12-19T17:23:50.890Z,69.75
2022-12-19T17:26:18.529Z,69.98
2022-12-19T17:28:48.912Z,70.02
2022-12-19T17:31:28.242Z,69.97
2022-12-19T17:33:58.232Z,69.99
2022-12-19T17:36:37.036Z,69.49
2022-12-19T17:39:27.849Z,69.50
2022-12-19T17:41:58.893Z,69.33
2022-12-19T17:44:25.866Z,69.85
2022-12-19T17:46:53.049Z,69.50
2022-12-19T17:49:31.590Z,69.47
2022-12-19T17:52:00.033Z,69.46
2022-12-19T17:54:27.873Z,69.28
2022-12-19T17:56:55.490Z,69.53
2022-12-19T17:59:22.493Z,69.24
2022-12-19T18:01:49.754Z,69.75
2022-12-19T18:04:19.075Z,69.50
2022-12-19T18:06:47.114Z,70.03
2022-12-19T18:09:22.412Z,69.34
2022-12-19T18:11:50.689Z,69.41
2022-12-19T18:14:19.198Z,69.64
2022-12-19T18:16:47.616Z,69.21
2022-12-19T18:19:18.908Z,69.58
2022-12-19T18:21:46.475Z,69.76
2022-12-19T18:24:16.533Z,69.29
2022-12-19T18:26:45.162Z,69.73
2022-12-19T18:29:12.837Z,69.76
2022-12-19T18:31:48.097Z,69.53
2022-12-19T18:34:24.076Z,69.78
2022-12-19T18:36:52.558Z,69.75
2022-12-19T18:39:28.254Z,69.56
2022-12-19T18:41:55.350Z,70.09
2022-12-19T18:44:25.099Z,69.86
2022-12-19T18:46:52.915Z,69.47
2022-12-19T18:49:20.714Z,69.70
2022-12-19T18:51:48.010Z,69.32
2022-12-19T18:54:18.613Z,69.31
2022-12-19T18:56:47.122Z,69.33
2022-12-19T18:59:14.794Z,69.14
2022-12-19T19:01:44.538Z,69.94
2022-12-19T19:04:14.540Z,69.89
2022-12-19T19:06:48.480Z,69.52
2022-12-19T19:09:18.806Z,69.56
2022-12-19T19:12:04.455Z,69.37
2022-12-19T19:14:31.417Z,69.42
2022-12-19T19:16:58.566Z,69.85
2022-12-19T19:19:25.601Z,70.27
2022-12-19T19:21:52.558Z,70.20
2022-12-19T19:24:22.396Z,70.19
2022-12-19T19:26:49.849Z,69.52
2022-12-19T19:29:19.123Z,70.08
2022-12-19T19:31:49.018Z,69.75
2022-12-19T19:34:22.758Z,69.60
2022-12-19T19:36:54.868Z,70.43
2022-12-19T19:39:23.064Z,70.03
2022-12-19T19:41:50.099Z,69.29
2022-12-19T19:44:17.203Z,69.70
2022-12-19T19:46:44.875Z,69.44
2022-12-19T19:49:12.521Z,69.79
2022-12-19T19:51:39.624Z,69.51
2022-12-19T19:54:06.623Z,69.86
2022-12-19T19:56:33.662Z,70.06
2022-12-19T19:59:00.872Z,69.42
2022-12-19T20:01:28.196Z,69.43
2022-12-19T20:03:55.445Z,69.91
2022-12-19T20:06:22.994Z,69.32
2022-12-19T20:08:50.501Z,70.24
2022-12-19T20:11:17.559Z,69.33
2022-12-19T20:13:44.571Z,69.30
2022-12-19T20:16:18.294Z,69.85
2022-12-19T20:18:51.216Z,69.27
2022-12-19T20:21:19.882Z,69.98
2022-12-19T20:23:47.161Z,69.88
2022-12-19T20:26:16.640Z,69.75
2022-12-19T20:28:48.835Z,69.61
2022-12-19T20:31:21.605Z,69.79
2022-12-19T20:33:49.239Z,69.44
2022-12-19T20:36:16.989Z,69.85
2022-12-19T20:38:44.034Z,69.13
2022-12-19T20:41:11.259Z,69.53
2022-12-19T20:43:38.825Z,69.63
2022-12-19T20:46:14.852Z,69.64
2022-12-19T20:48:42.474Z,68.66
2022-12-19T20:51:10.262Z,68.87
2022-12-19T20:53:39.032Z,69.28
2022-12-19T20:56:07.826Z,68.91
2022-12-19T20:58:36.804Z,69.37
2022-12-19T21:01:06.897Z,69.12
2022-12-19T21:03:34.650Z,69.21
2022-12-19T21:06:01.966Z,68.60
2022-12-19T21:08:29.081Z,69.23
2022-12-19T21:10:56.607Z,68.72
2022-12-19T21:13:24.091Z,69.00
2022-12-19T21:15:58.914Z,68.96
2022-12-19T21:18:26.921Z,68.95
2022-12-19T21:20:54.160Z,68.86
2022-12-19T21:23:23.123Z,69.21
2022-12-19T21:25:50.152Z,69.52
2022-12-19T21:28:17.331Z,68.74
2022-12-19T21:30:44.761Z,68.72
2022-12-19T21:33:11.953Z,69.21
2022-12-19T21:35:39.120Z,69.26
2022-12-19T21:38:06.187Z,69.22
2022-12-19T21:40:36.130Z,68.71
2022-12-19T21:43:11.247Z,68.70
2022-12-19T21:45:39.056Z,68.50
2022-12-19T21:48:06.321Z,69.08
2022-12-19T21:50:36.115Z,68.55
2022-12-19T21:53:03.275Z,68.91
2022-12-19T21:55:30.311Z,69.46
2022-12-19T21:57:57.307Z,69.50
2022-12-19T22:00:24.989Z,68.94
2022-12-19T22:03:12.733Z,69.45
2022-12-19T22:05:39.099Z,68.94
2022-12-19T22:08:06.107Z,68.80
2022-12-19T22:10:33.154Z,69.21
2022-12-19T22:13:00.140Z,69.46
2022-12-19T22:15:27.100Z,69.11
2022-12-19T22:17:54.089Z,68.64
2022-12-19T22:20:21.242Z,69.57
2022-12-19T22:22:48.191Z,69.44
2022-12-19T22:25:15.601Z,69.05
2022-12-19T22:27:42.545Z,68.83
2022-12-19T22:30:11.311Z,69.54
2022-12-19T22:32:38.472Z,69.23
2022-12-19T22:35:06.229Z,69.95
2022-12-19T22:37:33.295Z,69.56
2022-12-19T22:40:00.587Z,69.32
2022-12-19T22:42:28.169Z,69.86
2022-12-19T22:44:55.134Z,69.40
2022-12-19T22:47:22.075Z,69.50
2022-12-19T22:49:52.216Z,69.86
2022-12-19T22:52:19.422Z,68.92
2022-12-19T22:54:46.413Z,69.29
2022-12-19T22:57:13.366Z,69.89
2022-12-19T22:59:40.540Z,69.89
2022-12-19T23:02:07.739Z,70.09
2022-12-19T23:04:36.133Z,69.84
2022-12-19T23:07:03.158Z,69.28
2022-12-19T23:09:30.136Z,69.78
2022-12-19T23:11:57.197Z,69.09
2022-12-19T23:14:24.164Z,69.69
2022-12-19T23:16:51.272Z,69.01
2022-12-19T23:19:18.676Z,69.67
2022-12-19T23:21:46.266Z,69.12
2022-12-19T23:24:13.520Z,69.28
2022-12-19T23:26:41.149Z,69.33
2022-12-19T23:29:10.782Z,69.23
2022-12-19T23:31:40.790Z,69.78
2022-12-19T23:34:07.797Z,70.33
2022-12-19T23:39:21.747Z,69.54
2022-12-19T23:41:48.711Z,69.41
2022-12-19T23:44:15.878Z,69.73
2022-12-19T23:46:42.916Z,69.71
2022-12-19T23:49:09.897Z,69.13
2022-12-19T23:51:36.962Z,69.38
2022-12-19T23:54:04.079Z,69.39
2022-12-19T23:56:32.376Z,69.54
2022-12-19T23:58:59.940Z,69.87
